Time;durP1;ratioP1;P1;durP2;ratioP2;P2;SDS_P1;SDS_P2;PMS_P1;PMS_P2;Temp;Humidity;BMP_temperature;BMP_pressure;BME280_temperature;BME280_humidity;BME280_pressure;Samples;Min_cycle;Max_cycle;Signal;HPM_P1;HPM_P2
2022/07/20 00:00:06;;;;;;;6.90;3.63;;;;;;;30.01;26.24;101070.00;5053553;28;20051;-64
2022/07/20 00:02:39;;;;;;;3.83;3.00;;;;;;;30.00;26.35;101072.97;5053642;28;20056;-65
2022/07/20 00:05:07;;;;;;;4.80;3.55;;;;;;;30.00;26.13;101067.44;5051790;28;20272;-65
2022/07/20 00:07:33;;;;;;;8.90;3.67;;;;;;;29.98;26.04;101073.19;5033575;28;20042;-63
2022/07/20 00:12:45;;;;;;;8.98;3.42;;;;;;;29.93;26.23;101061.13;5033538;28;20161;-64
2022/07/20 00:15:12;;;;;;;5.45;3.22;;;;;;;29.88;26.09;101056.28;5049123;28;20056;-64
2022/07/20 00:17:39;;;;;;;4.70;2.75;;;;;;;29.84;26.22;101060.59;5053335;28;20408;-65
2022/07/20 00:20:06;;;;;;;6.45;3.63;;;;;;;29.81;26.32;101060.19;5053389;28;20052;-65
2022/07/20 00:22:32;;;;;;;4.53;3.30;;;;;;;29.76;26.32;101063.66;5053230;28;20049;-65
2022/07/20 00:25:08;;;;;;;7.43;3.17;;;;;;;29.72;26.77;101065.16;5053178;28;20076;-64
2022/07/20 00:27:34;;;;;;;5.65;3.88;;;;;;;29.67;26.51;101060.31;5052372;28;20049;-65
2022/07/20 00:30:03;;;;;;;5.78;3.45;;;;;;;29.64;26.70;101055.25;5053494;28;20045;-65
2022/07/20 00:32:29;;;;;;;5.55;3.40;;;;;;;29.61;26.78;101063.16;5053151;28;20047;-65
2022/07/20 00:34:56;;;;;;;6.65;3.90;;;;;;;29.56;27.54;101057.47;5052931;28;20059;-64
2022/07/20 00:37:23;;;;;;;5.85;3.38;;;;;;;29.53;27.45;101052.38;5052849;28;20095;-64
2022/07/20 00:39:49;;;;;;;4.82;3.10;;;;;;;29.49;27.30;101060.31;5052873;28;20052;-64
2022/07/20 00:42:16;;;;;;;6.03;3.60;;;;;;;29.46;27.70;101054.38;5052704;28;20550;-64
2022/07/20 00:44:42;;;;;;;6.28;3.50;;;;;;;29.40;27.87;101045.03;5052617;28;20135;-64
2022/07/20 00:47:09;;;;;;;7.78;3.47;;;;;;;29.33;28.30;101053.41;5052351;28;20041;-64
2022/07/20 00:49:35;;;;;;;9.23;3.47;;;;;;;29.28;28.05;101052.38;5052236;28;20045;-64
2022/07/20 00:52:02;;;;;;;6.60;3.47;;;;;;;29.20;28.24;101047.16;5051634;28;20033;-64
2022/07/20 00:54:29;;;;;;;5.50;3.55;;;;;;;29.14;28.63;101045.28;5051133;28;20037;-64
2022/07/20 00:56:56;;;;;;;5.53;3.70;;;;;;;29.07;28.55;101042.56;5052406;28;20423;-64
2022/07/20 00:59:23;;;;;;;6.72;3.85;;;;;;;29.02;28.78;101050.72;5052193;28;20037;-64
2022/07/20 01:01:49;;;;;;;4.00;3.30;;;;;;;28.98;28.79;101041.97;5052294;28;20039;-64
2022/07/20 01:04:21;;;;;;;6.03;3.85;;;;;;;28.94;29.06;101042.66;5051937;28;20041;-64
2022/07/20 01:06:48;;;;;;;7.95;3.97;;;;;;;28.87;29.20;101045.47;5051901;28;20053;-64
2022/07/20 01:09:17;;;;;;;6.53;4.15;;;;;;;28.83;29.18;101049.72;5051324;28;20041;-64
2022/07/20 01:11:44;;;;;;;6.95;3.85;;;;;;;28.75;29.25;101039.78;5052078;28;20562;-64
2022/07/20 01:14:11;;;;;;;6.22;3.60;;;;;;;28.69;29.11;101048.13;5052057;28;20045;-65
2022/07/20 01:16:38;;;;;;;8.13;3.90;;;;;;;28.61;29.08;101051.16;5051341;28;20090;-64
2022/07/20 01:19:06;;;;;;;7.15;4.15;;;;;;;28.55;29.24;101055.66;5050871;28;20064;-64
2022/07/20 01:21:40;;;;;;;10.10;4.60;;;;;;;28.50;29.20;101058.25;5052102;28;20214;-64
2022/07/20 01:24:12;;;;;;;5.97;4.07;;;;;;;28.43;29.37;101058.28;5052279;28;20037;-64
2022/07/20 01:26:44;;;;;;;7.15;3.72;;;;;;;28.39;29.51;101064.47;5051634;28;20482;-64
2022/07/20 01:29:12;;;;;;;7.57;4.10;;;;;;;28.34;29.71;101061.53;5051802;28;20083;-64
2022/07/20 01:31:39;;;;;;;8.07;4.05;;;;;;;28.29;30.19;101062.19;5052156;28;20052;-64
2022/07/20 01:34:06;;;;;;;6.25;4.15;;;;;;;28.26;30.26;101057.09;5052018;28;20433;-65
2022/07/20 01:36:33;;;;;;;5.18;4.00;;;;;;;28.23;30.59;101060.28;5052029;28;20045;-64
2022/07/20 01:38:59;;;;;;;6.18;3.42;;;;;;;28.21;30.74;101072.56;5051537;28;20064;-64
2022/07/20 01:41:26;;;;;;;5.57;3.70;;;;;;;28.15;30.97;101069.63;5052148;28;20037;-64
2022/07/20 01:43:56;;;;;;;7.80;4.40;;;;;;;28.08;31.17;101073.47;5051678;28;20487;-64
2022/07/20 01:46:23;;;;;;;5.57;4.20;;;;;;;27.89;30.96;101066.97;5051216;28;20049;-64
2022/07/20 01:48:50;;;;;;;5.43;4.35;;;;;;;27.66;31.19;101070.22;5031745;28;20515;-63
2022/07/20 01:51:17;;;;;;;7.53;4.30;;;;;;;27.45;31.78;101062.13;5032026;28;20038;-64
2022/07/20 01:53:48;;;;;;;8.18;4.68;;;;;;;27.29;31.82;101068.09;5031625;28;20042;-64
2022/07/20 01:56:14;;;;;;;6.70;4.85;;;;;;;27.17;32.29;101074.25;5031564;28;20380;-64
2022/07/20 01:58:41;;;;;;;8.50;4.63;;;;;;;27.10;32.45;101106.47;5030515;28;20057;-64
2022/07/20 02:01:08;;;;;;;11.00;5.47;;;;;;;27.03;32.86;101097.34;5051320;28;20136;-64
2022/07/20 02:03:35;;;;;;;11.02;6.47;;;;;;;26.93;33.24;101105.16;5051253;28;20053;-64
2022/07/20 02:06:02;;;;;;;10.25;6.95;;;;;;;26.86;32.95;101105.16;5051098;28;20106;-64
2022/07/20 02:08:28;;;;;;;11.48;7.18;;;;;;;26.81;33.42;101106.84;5051492;28;20037;-64
2022/07/20 02:10:55;;;;;;;9.45;6.78;;;;;;;26.77;33.47;101103.66;5051233;28;20116;-64
2022/07/20 02:13:23;;;;;;;13.50;8.02;;;;;;;26.71;33.76;101104.44;5051309;28;20063;-64
2022/07/20 02:18:35;;;;;;;10.18;7.00;;;;;;;26.57;33.76;101092.56;5051171;28;20055;-63
2022/07/20 02:21:02;;;;;;;11.80;8.07;;;;;;;26.52;34.01;101089.56;5050891;28;20047;-64
2022/07/20 02:23:33;;;;;;;11.85;7.60;;;;;;;26.48;34.50;101080.03;5050614;28;20043;-64
2022/07/20 02:25:59;;;;;;;10.13;7.60;;;;;;;26.47;34.43;101075.56;5051046;28;20077;-65
2022/07/20 02:28:26;;;;;;;13.43;8.55;;;;;;;26.45;34.43;101083.19;5051500;28;20056;-64
2022/07/20 02:30:52;;;;;;;11.90;7.75;;;;;;;26.45;34.27;101077.69;5051231;28;20037;-64
2022/07/20 02:33:21;;;;;;;10.63;7.70;;;;;;;26.45;34.51;101068.56;5050539;28;20518;-64
2022/07/20 02:35:47;;;;;;;15.23;8.07;;;;;;;26.45;34.47;101079.59;5031488;28;20120;-65
2022/07/20 02:38:14;;;;;;;11.30;6.97;;;;;;;26.43;34.64;101076.19;5031553;28;20041;-64
2022/07/20 02:40:41;;;;;;;11.85;8.57;;;;;;;26.43;34.85;101078.94;5031139;28;20092;-64
2022/07/20 02:43:09;;;;;;;11.32;7.07;;;;;;;26.41;35.01;101073.66;5031170;28;20037;-64
2022/07/20 02:45:36;;;;;;;10.23;7.03;;;;;;;26.39;34.95;101081.25;5048639;28;20406;-64
2022/07/20 02:48:04;;;;;;;12.23;6.88;;;;;;;26.38;34.83;101078.72;5051109;28;20154;-64
2022/07/20 02:50:37;;;;;;;11.43;6.47;;;;;;;26.34;34.95;101074.69;5050560;28;20057;-64
2022/07/20 02:53:05;;;;;;;10.68;6.72;;;;;;;26.30;35.11;101074.22;5050847;28;20534;-64
2022/07/20 02:55:32;;;;;;;7.78;6.50;;;;;;;26.25;35.17;101096.84;5050715;28;20551;-65
2022/07/20 02:57:59;;;;;;;9.55;7.30;;;;;;;26.18;35.30;101106.16;5050939;28;20047;-64
2022/07/20 03:00:26;;;;;;;7.95;7.15;;;;;;;26.06;35.58;101111.38;5051156;28;20045;-65
2022/07/20 03:02:55;;;;;;;12.35;7.63;;;;;;;25.97;35.33;101096.06;5051368;28;20041;-64
2022/07/20 03:05:21;;;;;;;10.80;7.53;;;;;;;25.88;35.48;101103.63;5050658;28;20139;-64
2022/07/20 03:07:48;;;;;;;10.93;7.55;;;;;;;25.85;35.54;101100.44;5051037;28;20407;-65
2022/07/20 03:10:15;;;;;;;13.90;7.72;;;;;;;25.83;35.61;101113.56;5050502;28;20047;-65
2022/07/20 03:12:44;;;;;;;12.57;8.18;;;;;;;25.79;36.00;101117.75;5050990;28;20053;-65
2022/07/20 03:15:11;;;;;;;10.55;8.23;;;;;;;25.74;36.06;101129.38;5050780;28;20049;-64
2022/07/20 03:17:47;;;;;;;8.95;7.70;;;;;;;25.69;35.91;101128.28;5050687;28;20044;-64
2022/07/20 03:20:19;;;;;;;11.38;7.82;;;;;;;25.63;35.91;101125.25;5050315;28;20049;-64
2022/07/20 03:22:47;;;;;;;11.90;8.23;;;;;;;25.61;36.20;101129.25;5031010;28;20060;-64
2022/07/20 03:25:14;;;;;;;11.55;8.15;;;;;;;25.56;35.96;101121.59;5029408;28;20473;-64
2022/07/20 03:27:41;;;;;;;12.55;8.60;;;;;;;25.53;36.25;101129.41;5030574;28;20051;-64
2022/07/20 03:30:08;;;;;;;11.93;8.07;;;;;;;25.50;36.30;101130.66;5030779;28;20051;-63
2022/07/20 03:32:39;;;;;;;14.70;8.38;;;;;;;25.49;36.64;101141.84;5032692;28;20527;-64
2022/07/20 03:35:06;;;;;;;12.40;7.57;;;;;;;25.48;36.48;101151.16;5039123;28;20443;-63
2022/07/20 03:37:33;;;;;;;11.25;7.55;;;;;;;25.47;36.23;101142.03;5054212;28;20499;-64
2022/07/20 03:40:00;;;;;;;9.88;7.93;;;;;;;25.45;36.71;101138.66;5054207;28;20053;-63
2022/07/20 03:42:26;;;;;;;11.07;7.40;;;;;;;25.45;36.55;101149.66;5053916;28;20041;-63
2022/07/20 03:44:53;;;;;;;12.07;7.65;;;;;;;25.43;36.74;101156.41;5053749;28;20053;-63
2022/07/20 03:47:19;;;;;;;13.52;8.30;;;;;;;25.40;36.76;101162.28;5053783;28;20080;-63
2022/07/20 03:49:46;;;;;;;18.35;8.95;;;;;;;25.37;36.73;101165.44;5053830;28;20045;-63
2022/07/20 03:52:13;;;;;;;10.48;8.13;;;;;;;25.30;36.89;101168.97;5053700;28;20037;-64
2022/07/20 03:54:40;;;;;;;12.13;8.80;;;;;;;25.25;37.00;101182.44;5052616;28;20044;-64
2022/07/20 03:57:08;;;;;;;14.38;9.15;;;;;;;25.18;37.18;101184.25;5053729;28;20060;-63
2022/07/20 03:59:34;;;;;;;13.25;8.15;;;;;;;25.11;37.55;101186.09;5053618;28;20083;-63
2022/07/20 04:02:01;;;;;;;12.82;8.88;;;;;;;25.05;37.62;101183.28;5053770;28;20395;-63
2022/07/20 04:04:28;;;;;;;10.60;9.20;;;;;;;24.98;37.76;101183.22;5053315;28;20084;-63
2022/07/20 04:06:56;;;;;;;13.30;8.68;;;;;;;24.94;38.06;101195.59;5053553;28;20049;-63
2022/07/20 04:12:10;;;;;;;13.40;9.88;;;;;;;24.92;38.20;101214.19;5053339;28;20071;-64
2022/07/20 04:14:37;;;;;;;10.63;9.30;;;;;;;24.91;38.31;101210.59;5052727;28;20037;-63
2022/07/20 04:17:04;;;;;;;13.60;9.38;;;;;;;24.88;38.34;101221.97;5053428;28;20047;-63
2022/07/20 04:19:30;;;;;;;12.05;9.27;;;;;;;24.82;38.49;101216.38;5053577;28;20137;-63
2022/07/20 04:21:58;;;;;;;14.30;9.95;;;;;;;24.75;38.81;101231.94;5053266;28;20061;-63
2022/07/20 04:24:25;;;;;;;16.55;10.48;;;;;;;24.67;38.91;101230.16;5053658;28;20036;-64
2022/07/20 04:26:52;;;;;;;17.65;11.23;;;;;;;24.59;39.21;101235.75;5052310;28;20136;-64
2022/07/20 04:29:19;;;;;;;17.88;10.88;;;;;;;24.54;39.81;101228.09;5053490;28;20072;-64
2022/07/20 04:31:45;;;;;;;18.17;11.63;;;;;;;24.53;39.68;101236.50;5053053;28;20052;-64
2022/07/20 04:34:13;;;;;;;17.27;11.88;;;;;;;24.53;40.10;101236.50;5053199;28;20048;-64
2022/07/20 04:36:40;;;;;;;23.40;15.00;;;;;;;24.54;40.16;101239.06;5052712;28;20115;-64
2022/07/20 04:39:06;;;;;;;20.70;14.73;;;;;;;24.55;40.75;101242.66;5053077;28;20033;-64
2022/07/20 04:41:33;;;;;;;28.42;16.10;;;;;;;24.50;40.90;101245.94;5052555;28;20041;-64
2022/07/20 04:44:00;;;;;;;22.05;16.08;;;;;;;24.49;41.34;101248.88;5052723;28;20048;-64
2022/07/20 04:46:28;;;;;;;27.25;16.45;;;;;;;24.49;41.21;101249.75;5053017;28;20059;-64
2022/07/20 04:48:56;;;;;;;23.63;18.08;;;;;;;24.53;41.80;101255.75;5052774;28;20060;-64
2022/07/20 04:51:23;;;;;;;26.70;18.27;;;;;;;24.58;42.11;101251.38;5052861;28;20041;-64
2022/07/20 04:53:51;;;;;;;29.98;21.92;;;;;;;24.65;42.52;101257.81;5051318;28;20044;-64
2022/07/20 04:56:18;;;;;;;31.10;22.23;;;;;;;24.73;43.01;101261.50;5051786;28;20110;-64
2022/07/20 04:58:50;;;;;;;26.85;22.20;;;;;;;24.82;43.30;101263.94;5052534;28;20131;-64
2022/07/20 05:01:17;;;;;;;31.70;22.95;;;;;;;24.91;43.32;101261.94;5052321;28;20517;-64
2022/07/20 05:03:46;;;;;;;40.15;25.27;;;;;;;25.00;43.43;101278.16;5052341;28;20041;-64
2022/07/20 05:06:12;;;;;;;39.38;24.35;;;;;;;25.12;44.06;101272.16;5052407;28;20056;-64
2022/07/20 05:08:39;;;;;;;37.70;26.10;;;;;;;25.23;43.95;101278.00;5052598;28;20402;-64
2022/07/20 05:11:05;;;;;;;30.90;23.65;;;;;;;25.30;44.13;101289.94;5051286;28;20041;-64
2022/07/20 05:13:41;;;;;;;33.63;25.05;;;;;;;25.41;44.79;101284.97;5052593;28;20434;-65
2022/07/20 05:16:09;;;;;;;35.70;25.05;;;;;;;25.50;44.73;101290.16;5052413;28;20251;-64
2022/07/20 05:18:36;;;;;;;36.38;25.48;;;;;;;25.59;45.12;101286.22;5052166;28;20115;-64
2022/07/20 05:21:03;;;;;;;36.22;25.58;;;;;;;25.69;45.10;101285.06;5052283;28;20063;-64
2022/07/20 05:23:30;;;;;;;31.75;26.15;;;;;;;25.78;45.13;101286.63;5051379;28;20075;-63
2022/07/20 05:25:56;;;;;;;35.97;25.65;;;;;;;25.86;45.10;101278.25;5052094;28;20045;-64
2022/07/20 05:28:23;;;;;;;32.63;26.13;;;;;;;25.94;45.08;101278.09;5052083;28;20049;-64
2022/07/20 05:30:50;;;;;;;32.63;26.67;;;;;;;26.02;45.03;101272.47;5052127;28;20040;-64
2022/07/20 05:33:19;;;;;;;31.17;25.02;;;;;;;26.11;45.40;101270.44;5050664;28;20049;-64
2022/07/20 05:35:46;;;;;;;30.58;25.45;;;;;;;26.20;45.25;101271.97;5051670;28;20091;-64
2022/07/20 05:38:13;;;;;;;32.53;25.23;;;;;;;26.28;45.08;101272.66;5050395;28;20040;-64
2022/07/20 05:40:40;;;;;;;34.35;26.88;;;;;;;26.38;45.17;101283.34;5052170;28;20047;-64
2022/07/20 05:43:08;;;;;;;38.80;24.60;;;;;;;26.44;45.19;101276.19;5051903;28;20244;-64
2022/07/20 05:45:35;;;;;;;32.33;25.05;;;;;;;26.49;45.21;101287.44;5052141;28;20045;-64
2022/07/20 05:48:06;;;;;;;33.20;26.98;;;;;;;26.56;44.95;101286.44;5052155;28;20506;-64
2022/07/20 05:50:32;;;;;;;34.83;28.27;;;;;;;26.62;45.08;101303.19;5051672;28;20055;-65
2022/07/20 05:53:02;;;;;;;34.75;27.83;;;;;;;26.66;45.15;101312.75;5051279;28;20033;-65
2022/07/20 05:55:28;;;;;;;34.20;26.95;;;;;;;26.70;45.19;101319.56;5051079;28;20495;-64
2022/07/20 05:57:55;;;;;;;30.52;25.10;;;;;;;26.76;44.93;101327.91;5051793;28;20040;-65
2022/07/20 06:00:21;;;;;;;33.22;24.40;;;;;;;26.81;44.92;101330.06;5051156;28;20033;-63
2022/07/20 06:02:51;;;;;;;31.73;23.67;;;;;;;26.87;44.87;101343.00;5051869;28;20048;-64
2022/07/20 06:05:18;;;;;;;28.92;22.33;;;;;;;26.92;45.02;101348.75;5051112;28;20069;-64
2022/07/20 06:07:44;;;;;;;30.35;23.42;;;;;;;27.00;44.79;101359.66;5051503;28;20052;-64
2022/07/20 06:10:12;;;;;;;27.38;22.35;;;;;;;27.08;44.58;101356.72;5051441;28;20041;-64
2022/07/20 06:12:40;;;;;;;28.80;20.25;;;;;;;27.14;44.55;101358.66;5051395;28;20041;-65
2022/07/20 06:15:07;;;;;;;27.35;20.80;;;;;;;27.23;44.21;101362.09;5051328;28;20055;-65
2022/07/20 06:17:35;;;;;;;26.48;19.48;;;;;;;27.33;44.53;101367.22;5050766;28;20418;-64
2022/07/20 06:20:11;;;;;;;23.70;19.17;;;;;;;27.40;44.01;101382.75;5051297;28;20060;-66
2022/07/20 06:22:43;;;;;;;25.08;17.98;;;;;;;27.51;44.20;101379.41;5051619;28;20407;-63
2022/07/20 06:25:11;;;;;;;20.52;17.67;;;;;;;27.61;43.68;101386.47;5051340;28;20052;-67
2022/07/20 06:27:39;;;;;;;24.35;18.98;;;;;;;27.71;43.46;101378.66;5050016;28;20052;-67
2022/07/20 06:30:08;;;;;;;20.95;17.20;;;;;;;27.78;43.59;101409.88;5051247;28;20044;-67
2022/07/20 06:32:40;;;;;;;22.25;16.05;;;;;;;27.89;43.50;101400.13;5050681;28;20537;-68
2022/07/20 06:35:08;;;;;;;26.60;17.55;;;;;;;28.00;43.30;101405.88;5050465;28;20052;-66
2022/07/20 06:37:36;;;;;;;21.83;16.08;;;;;;;28.12;42.96;101415.25;5051225;28;20044;-66
2022/07/20 06:40:03;;;;;;;24.95;16.52;;;;;;;28.23;42.86;101415.69;5051168;28;20250;-67
2022/07/20 06:42:30;;;;;;;20.83;15.18;;;;;;;28.31;42.75;101421.06;5050771;28;20123;-66
2022/07/20 06:44:59;;;;;;;24.75;16.30;;;;;;;28.38;42.43;101433.81;5050985;28;20138;-66
2022/07/20 06:47:26;;;;;;;24.73;16.85;;;;;;;28.44;42.08;101435.72;5050624;28;20063;-65
2022/07/20 06:49:52;;;;;;;19.50;14.57;;;;;;;28.48;42.01;101433.41;5050680;28;20033;-67
2022/07/20 06:52:19;;;;;;;22.58;15.02;;;;;;;28.53;41.92;101432.75;5050743;28;20132;-66
2022/07/20 06:54:47;;;;;;;21.67;14.80;;;;;;;28.54;41.80;101449.13;5050843;28;20041;-66
2022/07/20 06:57:14;;;;;;;23.98;15.20;;;;;;;28.57;41.69;101454.22;5050954;28;20539;-66
2022/07/20 06:59:40;;;;;;;23.33;14.98;;;;;;;28.61;41.57;101474.00;5050720;28;20483;-66
2022/07/20 07:02:08;;;;;;;23.05;15.05;;;;;;;28.68;41.63;101472.94;5050602;28;20037;-66
2022/07/20 07:04:35;;;;;;;22.60;14.48;;;;;;;28.79;41.61;101485.25;5050787;28;20057;-65
2022/07/20 07:07:02;;;;;;;17.17;13.68;;;;;;;28.88;41.42;101483.16;5054027;28;20385;-66
2022/07/20 07:09:29;;;;;;;20.15;14.68;;;;;;;28.97;41.44;101487.41;5054747;28;20491;-67
2022/07/20 07:11:56;;;;;;;16.70;12.65;;;;;;;29.05;41.29;101473.38;5054604;28;20047;-66
2022/07/20 07:14:25;;;;;;;17.05;12.65;;;;;;;29.15;41.13;101482.09;5054670;28;20499;-67
2022/07/20 07:16:53;;;;;;;18.70;11.73;;;;;;;29.25;40.99;101498.25;5053368;28;20453;-66
2022/07/20 07:19:20;;;;;;;16.38;11.73;;;;;;;29.34;40.72;101503.31;5053436;28;20045;-67
2022/07/20 07:21:47;;;;;;;15.60;12.02;;;;;;;29.40;40.59;101509.91;5054385;28;20055;-65
2022/07/20 07:24:13;;;;;;;20.05;12.57;;;;;;;29.54;40.58;101517.13;5054369;28;20064;-66
2022/07/20 07:26:40;;;;;;;17.23;11.57;;;;;;;29.68;40.34;101512.41;5054188;28;20056;-66
2022/07/20 07:29:07;;;;;;;19.13;11.77;;;;;;;29.73;40.13;101524.53;5054072;28;20442;-65
2022/07/20 07:31:34;;;;;;;19.08;12.32;;;;;;;29.81;40.06;101530.91;5054513;28;20033;-66
2022/07/20 07:34:01;;;;;;;18.73;11.73;;;;;;;29.88;39.97;101535.34;5054257;28;20083;-65
2022/07/20 07:36:28;;;;;;;18.08;11.48;;;;;;;29.92;39.72;101553.22;5053876;28;20493;-64
2022/07/20 07:38:55;;;;;;;17.45;11.63;;;;;;;29.88;39.34;101553.88;5054139;28;20128;-64
2022/07/20 07:41:22;;;;;;;15.25;11.63;;;;;;;29.82;39.23;101544.53;5052831;28;20442;-64
2022/07/20 07:43:53;;;;;;;17.17;12.15;;;;;;;29.77;39.15;101537.94;5052509;28;20064;-65
2022/07/20 07:46:20;;;;;;;19.27;11.68;;;;;;;29.70;39.19;101546.25;5052895;28;20037;-64
2022/07/20 07:48:47;;;;;;;18.25;12.10;;;;;;;29.64;39.26;101545.19;5053799;28;20137;-64
2022/07/20 07:51:14;;;;;;;16.65;11.85;;;;;;;29.61;39.32;101553.09;5054070;28;20483;-63
2022/07/20 07:53:41;;;;;;;18.35;12.05;;;;;;;29.57;39.17;101549.06;5053569;28;20555;-64
2022/07/20 07:56:08;;;;;;;18.50;12.82;;;;;;;29.57;39.29;101566.53;5053917;28;20434;-68
2022/07/20 07:58:34;;;;;;;18.63;12.05;;;;;;;29.62;39.56;101566.72;5053657;28;20055;-66
2022/07/20 08:01:01;;;;;;;15.98;12.70;;;;;;;29.72;39.39;101571.81;5054151;28;20128;-67
2022/07/20 08:03:29;;;;;;;15.80;12.32;;;;;;;29.82;39.65;101572.22;5053725;28;20036;-66
2022/07/20 08:05:59;;;;;;;17.90;12.30;;;;;;;29.92;39.48;101569.84;5054021;28;20229;-67
2022/07/20 08:08:27;;;;;;;16.88;10.50;;;;;;;30.00;39.46;101557.66;5053941;28;20072;-67
2022/07/20 08:10:54;;;;;;;15.52;10.95;;;;;;;30.13;39.37;101563.19;5053685;28;20037;-67
2022/07/20 08:13:22;;;;;;;14.40;11.15;;;;;;;30.24;39.39;101558.84;5053989;28;20049;-67
2022/07/20 08:15:49;;;;;;;14.82;10.20;;;;;;;30.34;39.23;101556.44;5053602;28;20049;-67
2022/07/20 08:18:18;;;;;;;18.77;10.77;;;;;;;30.47;38.96;101547.19;5053428;28;20041;-66
2022/07/20 08:20:45;;;;;;;17.10;11.60;;;;;;;30.53;38.51;101530.56;5053657;28;20076;-67
2022/07/20 08:23:13;;;;;;;14.65;10.60;;;;;;;30.58;38.18;101532.66;5054124;28;20119;-67
2022/07/20 08:25:40;;;;;;;14.80;10.40;;;;;;;30.65;38.45;101547.34;5054146;28;20040;-67
2022/07/20 08:28:15;;;;;;;18.92;11.35;;;;;;;30.72;38.18;101556.47;5053768;28;20044;-67
2022/07/20 08:30:44;;;;;;;14.80;11.18;;;;;;;30.79;38.14;101561.97;5034134;28;20045;-67
2022/07/20 08:33:23;;;;;;;15.43;11.18;;;;;;;30.84;38.05;101556.59;5057322;28;20044;-67
2022/07/20 08:35:50;;;;;;;17.40;10.57;;;;;;;30.96;38.28;101568.66;5073743;28;20120;-67
2022/07/20 08:38:17;;;;;;;16.27;10.80;;;;;;;31.10;38.31;101569.38;5073523;28;20483;-67
2022/07/20 08:40:43;;;;;;;13.82;11.23;;;;;;;31.24;37.86;101562.69;5058479;28;20052;-67
2022/07/20 08:43:13;;;;;;;16.85;10.68;;;;;;;31.38;37.70;101560.63;5053752;28;20491;-67
2022/07/20 08:45:40;;;;;;;13.40;9.88;;;;;;;31.52;37.53;101571.38;5052942;28;20072;-67
2022/07/20 08:48:08;;;;;;;18.30;9.90;;;;;;;31.65;37.19;101569.53;5053537;28;20047;-68
2022/07/20 08:50:35;;;;;;;15.77;10.45;;;;;;;31.81;36.88;101555.06;5053048;28;20106;-67
2022/07/20 08:53:06;;;;;;;14.85;10.70;;;;;;;31.90;36.78;101556.44;5053648;28;20120;-67
2022/07/20 08:55:33;;;;;;;17.13;10.57;;;;;;;31.99;36.80;101568.97;5053108;28;20438;-67
2022/07/20 08:58:02;;;;;;;13.43;10.70;;;;;;;32.09;36.90;101573.97;5053247;28;20033;-67
2022/07/20 09:00:29;;;;;;;13.68;9.55;;;;;;;32.30;36.97;101583.75;5051630;28;20047;-68
2022/07/20 09:03:01;;;;;;;15.23;9.93;;;;;;;32.49;36.66;101574.28;5052526;28;20039;-68
2022/07/20 09:05:30;;;;;;;14.95;10.43;;;;;;;32.69;36.21;101554.50;5052771;28;20060;-68
2022/07/20 09:07:58;;;;;;;17.27;10.43;;;;;;;32.82;35.70;101532.09;5052725;28;20442;-68
2022/07/20 09:10:28;;;;;;;12.25;9.07;;;;;;;32.88;35.37;101514.47;5053112;28;20036;-68
2022/07/20 09:12:59;;;;;;;13.80;9.15;;;;;;;32.93;34.83;101519.28;5052357;28;20037;-67
2022/07/20 09:15:41;;;;;;;13.13;8.77;;;;;;;32.96;34.86;101530.78;5039185;28;20041;-66
2022/07/20 09:18:21;;;;;;;12.70;9.48;;;;;;;33.02;34.44;101540.13;5052164;28;20037;-67
2022/07/20 09:20:56;;;;;;;20.70;10.50;;;;;;;33.09;34.57;101565.88;5052078;28;20045;-67
2022/07/20 09:23:33;;;;;;;15.43;9.40;;;;;;;33.12;34.71;101582.09;5052359;28;20048;-68
2022/07/20 09:26:20;;;;;;;13.88;9.40;;;;;;;33.17;35.09;101601.72;5051714;28;20565;-67
2022/07/20 09:28:52;;;;;;;10.20;8.55;;;;;;;33.33;34.51;101614.97;5051424;28;20049;-67
2022/07/20 09:31:29;;;;;;;11.25;8.48;;;;;;;33.42;34.11;101618.22;5052310;28;20045;-67
2022/07/20 09:34:00;;;;;;;10.90;8.30;;;;;;;33.40;34.37;101600.91;5052633;28;20148;-67
2022/07/20 09:36:29;;;;;;;9.75;8.25;;;;;;;33.41;34.24;101581.19;5051774;28;20509;-67
2022/07/20 09:39:16;;;;;;;12.75;8.70;;;;;;;33.55;34.12;101575.38;5052005;28;20352;-67
2022/07/20 09:41:56;;;;;;;15.48;8.80;;;;;;;33.67;33.70;101579.00;5051812;28;20041;-68
2022/07/20 09:44:26;;;;;;;13.00;8.13;;;;;;;33.69;33.25;101574.03;5052145;28;20470;-67
2022/07/20 09:46:54;;;;;;;9.15;7.43;;;;;;;33.72;33.04;101565.19;5051460;28;20033;-67
2022/07/20 09:49:30;;;;;;;14.80;8.52;;;;;;;33.74;33.05;101565.78;5051696;28;20501;-68
2022/07/20 09:51:58;;;;;;;11.30;8.10;;;;;;;33.82;32.99;101567.38;5050412;28;20041;-67
2022/07/20 09:54:46;;;;;;;11.57;8.57;;;;;;;33.98;32.29;101561.03;5051479;28;20459;-68
2022/07/20 09:57:15;;;;;;;10.02;7.68;;;;;;;34.09;32.73;101558.22;5030469;28;20059;-68
2022/07/20 09:59:46;;;;;;;11.32;7.45;;;;;;;34.20;32.32;101570.44;5031933;28;20076;-68
2022/07/20 10:02:14;;;;;;;9.88;7.97;;;;;;;34.27;32.05;101570.28;5030300;28;20037;-68
2022/07/20 10:04:45;;;;;;;13.32;8.70;;;;;;;34.31;31.92;101575.13;5034432;28;20107;-68
2022/07/20 10:07:11;;;;;;;11.10;7.70;;;;;;;34.29;31.54;101582.91;5051923;28;20041;-67
2022/07/20 10:09:38;;;;;;;10.35;7.47;;;;;;;34.25;31.54;101604.00;5051419;28;20119;-67
2022/07/20 10:12:06;;;;;;;9.13;7.45;;;;;;;34.18;31.38;101630.31;5051363;28;20402;-68
2022/07/20 10:14:39;;;;;;;12.52;7.65;;;;;;;34.07;31.46;101637.59;5050970;28;20041;-68
2022/07/20 10:17:05;;;;;;;9.10;7.32;;;;;;;34.02;31.56;101649.50;5050445;28;20037;-67
2022/07/20 10:19:42;;;;;;;14.15;7.55;;;;;;;34.00;31.88;101657.25;5051063;28;20052;-68
2022/07/20 10:22:12;;;;;;;8.75;7.85;;;;;;;34.02;31.81;101634.72;5051050;28;20491;-67
2022/07/20 10:24:44;;;;;;;13.55;7.82;;;;;;;33.99;31.57;101641.63;5051378;28;20064;-68
2022/07/20 10:27:12;;;;;;;13.70;7.90;;;;;;;33.98;31.97;101636.28;5051125;28;20055;-68
2022/07/20 10:29:41;;;;;;;30.10;27.10;;;;;;;33.95;31.69;101645.13;5051299;28;20102;-69
2022/07/20 10:32:57;;;;;;;11.98;9.45;;;;;;;33.92;31.78;101645.63;5051154;28;20041;-69
2022/07/20 10:35:25;;;;;;;;;;;;;;;34.00;31.74;101634.94;5022048;28;20568;-69
2022/07/20 10:37:54;;;;;;;8.50;7.28;;;;;;;34.08;31.94;101622.56;5031415;28;19921;-69
2022/07/20 10:40:28;;;;;;;7.65;6.78;;;;;;;34.21;32.16;101624.25;5031634;28;20033;-69
2022/07/20 10:43:13;;;;;;;11.68;7.65;;;;;;;34.34;31.59;101622.06;5040380;28;20104;-69
2022/07/20 10:45:41;;;;;;;13.32;7.78;;;;;;;34.49;31.67;101629.88;5034144;28;20072;-69
2022/07/20 10:48:11;;;;;;;10.02;7.00;;;;;;;34.51;31.36;101601.75;5035382;28;20072;-70
2022/07/20 10:51:04;;;;;;;9.95;7.20;;;;;;;34.58;31.08;101603.28;5035350;28;20410;-69
2022/07/20 10:53:32;;;;;;;12.13;8.20;;;;;;;34.64;30.91;101607.88;5044666;28;20041;-70
2022/07/20 10:56:07;;;;;;;9.80;7.07;;;;;;;34.65;31.45;101601.19;5054855;28;20037;-70
2022/07/20 10:58:36;;;;;;;10.75;6.75;;;;;;;34.70;31.22;101587.31;5053989;28;20587;-69
2022/07/20 11:01:09;;;;;;;11.32;6.60;;;;;;;34.80;30.93;101581.09;5055206;28;20052;-69
2022/07/20 11:03:43;;;;;;;8.73;6.47;;;;;;;34.91;30.50;101593.31;5054935;28;20045;-69
2022/07/20 11:06:13;;;;;;;10.73;6.47;;;;;;;35.00;30.59;101597.41;5055222;28;20067;-70
2022/07/20 11:08:52;;;;;;;9.82;6.78;;;;;;;35.11;30.04;101599.25;5054827;28;20037;-69
2022/07/20 11:11:23;;;;;;;10.32;6.90;;;;;;;35.22;30.35;101603.06;5053676;28;20037;-70
2022/07/20 11:13:50;;;;;;;8.45;6.47;;;;;;;35.23;30.31;101600.00;5054890;28;20037;-68
2022/07/20 11:16:22;;;;;;;13.70;7.07;;;;;;;35.28;29.98;101596.47;5054965;28;20053;-69
2022/07/20 11:18:50;;;;;;;10.73;6.07;;;;;;;35.25;29.98;101581.06;5055221;28;20052;-68
2022/07/20 11:21:28;;;;;;;9.30;6.43;;;;;;;35.29;29.27;101585.03;5054781;28;20509;-70
2022/07/20 11:24:24;;;;;;;8.67;6.70;;;;;;;35.39;29.90;101580.72;5055216;28;20072;-68
2022/07/20 11:26:52;;;;;;;7.38;6.05;;;;;;;35.51;29.45;101590.69;5054722;28;20299;-69
2022/07/20 11:29:22;;;;;;;8.23;6.13;;;;;;;35.54;29.11;101589.34;5054521;28;20057;-70
2022/07/20 11:31:49;;;;;;;9.68;6.03;;;;;;;35.52;29.25;101584.00;5054620;28;20036;-70